createdAt,value
2023-04-19T00:07:00.687Z,8.65
2023-04-19T00:12:18.679Z,12.82
2023-04-19T00:17:31.346Z,9.00
2023-04-19T00:22:40.610Z,9.32
2023-04-19T00:28:04.309Z,8.07
2023-04-19T00:33:19.046Z,8.68
2023-04-19T00:38:41.295Z,8.45
2023-04-19T00:44:11.764Z,8.32
2023-04-19T00:49:17.830Z,9.32
2023-04-19T00:54:33.350Z,8.40
2023-04-19T00:59:44.740Z,9.02
2023-04-19T01:05:14.322Z,8.82
2023-04-19T01:10:19.030Z,9.40
2023-04-19T01:15:25.984Z,9.27
2023-04-19T01:20:33.404Z,9.23
2023-04-19T01:31:46.889Z,8.52
2023-04-19T01:37:17.158Z,9.95
2023-04-19T01:42:55.278Z,9.27
2023-04-19T01:48:20.950Z,8.60
2023-04-19T01:53:48.332Z,9.13
2023-04-19T01:59:53.755Z,8.02
2023-04-19T02:10:21.171Z,8.88
2023-04-19T02:15:42.304Z,8.57
2023-04-19T02:26:43.040Z,9.55
2023-04-19T02:31:49.115Z,11.15
2023-04-19T02:37:06.259Z,9.73
2023-04-19T02:42:21.799Z,10.73
2023-04-19T02:47:28.564Z,9.38
2023-04-19T02:52:32.654Z,9.20
2023-04-19T02:57:37.485Z,10.32
2023-04-19T03:02:49.691Z,9.27
2023-04-19T03:07:50.387Z,10.10
2023-04-19T03:13:37.437Z,9.50
2023-04-19T03:19:03.016Z,10.13
2023-04-19T03:24:22.312Z,9.52
2023-04-19T03:29:37.058Z,9.30
2023-04-19T03:34:59.671Z,9.10
2023-04-19T03:40:40.990Z,9.05
2023-04-19T03:46:28.531Z,9.07
2023-04-19T03:51:59.056Z,8.85
2023-04-19T03:57:20.170Z,8.93
2023-04-19T04:02:52.481Z,9.93
2023-04-19T04:08:40.156Z,9.00
2023-04-19T04:26:09.469Z,9.93
2023-04-19T04:31:27.746Z,10.63
2023-04-19T04:36:44.568Z,9.52
2023-04-19T04:48:26.166Z,9.33
2023-04-19T04:54:34.044Z,10.27
2023-04-19T05:05:45.426Z,10.43
2023-04-19T05:11:06.389Z,8.52
2023-04-19T05:33:09.662Z,5.20
2023-04-19T05:38:38.199Z,5.20
2023-04-19T05:44:11.729Z,5.15
2023-04-19T05:49:25.999Z,5.30
2023-04-19T05:54:48.061Z,7.30
2023-04-19T06:00:23.286Z,7.28
2023-04-19T06:11:53.449Z,5.32
2023-04-19T06:17:06.959Z,5.63
2023-04-19T06:22:14.491Z,5.50
2023-04-19T06:27:24.404Z,5.00
2023-04-19T06:32:57.406Z,4.60
2023-04-19T06:38:03.861Z,3.50
2023-04-19T06:43:06.002Z,4.07
2023-04-19T06:48:35.078Z,3.33
2023-04-19T06:53:42.104Z,3.90
2023-04-19T06:58:43.461Z,4.03
2023-04-19T07:03:42.522Z,4.53
2023-04-19T07:09:05.045Z,4.82
2023-04-19T07:20:12.063Z,5.95
2023-04-19T07:26:38.808Z,3.85
2023-04-19T07:32:19.582Z,4.63
2023-04-19T07:44:04.328Z,3.20
2023-04-19T07:49:12.707Z,3.72
2023-04-19T07:54:36.319Z,4.35
2023-04-19T08:00:08.864Z,4.95
2023-04-19T08:05:21.198Z,5.20
2023-04-19T08:10:25.178Z,6.05
2023-04-19T08:16:20.494Z,5.00
2023-04-19T08:21:09.952Z,5.00
2023-04-19T08:27:10.185Z,5.28
2023-04-19T08:32:04.028Z,6.20
2023-04-19T08:42:28.764Z,4.75
2023-04-19T08:52:54.834Z,4.43
2023-04-19T09:04:01.157Z,4.60
2023-04-19T09:14:40.020Z,4.53
2023-04-19T09:19:49.193Z,3.40
2023-04-19T09:30:24.180Z,3.30
2023-04-19T09:35:57.009Z,3.78
2023-04-19T09:41:08.475Z,2.95
2023-04-19T09:46:10.227Z,3.10
2023-04-19T09:51:15.145Z,3.25
2023-04-19T09:56:14.227Z,3.35
2023-04-19T10:01:24.734Z,3.13
2023-04-19T10:06:45.923Z,4.20
2023-04-19T10:12:03.158Z,3.08
2023-04-19T10:17:35.319Z,3.05
2023-04-19T10:22:39.378Z,3.17
2023-04-19T10:28:03.786Z,2.75
2023-04-19T10:33:35.191Z,3.00
2023-04-19T10:38:46.569Z,3.15
2023-04-19T10:43:58.664Z,3.15
2023-04-19T10:49:43.682Z,3.13
2023-04-19T10:55:00.420Z,2.92
2023-04-19T11:00:23.429Z,2.58
2023-04-19T11:05:25.656Z,2.83
2023-04-19T11:10:37.770Z,2.35
2023-04-19T11:15:44.417Z,2.80
2023-04-19T11:21:06.773Z,2.17
2023-04-19T11:26:17.113Z,1.95
2023-04-19T11:31:16.667Z,2.88
2023-04-19T11:36:20.970Z,1.98
2023-04-19T11:41:28.645Z,3.55
2023-04-19T11:46:47.366Z,2.70
2023-04-19T11:51:48.100Z,2.53
2023-04-19T12:03:07.028Z,2.90
2023-04-19T12:08:15.798Z,3.10
2023-04-19T12:13:18.427Z,3.00
2023-04-19T12:18:35.890Z,2.55
2023-04-19T12:23:36.836Z,2.40
2023-04-19T12:28:38.314Z,2.30
2023-04-19T12:33:45.100Z,2.50
2023-04-19T12:38:46.944Z,2.30
2023-04-19T12:43:58.132Z,2.55
2023-04-19T12:48:56.036Z,2.25
2023-04-19T12:54:22.861Z,2.40
2023-04-19T12:59:23.876Z,2.35
2023-04-19T13:04:26.239Z,2.05
2023-04-19T13:09:27.400Z,2.55
2023-04-19T13:14:35.011Z,2.22
2023-04-19T13:19:34.942Z,2.53
2023-04-19T13:24:39.414Z,2.35
2023-04-19T13:29:37.903Z,2.47
2023-04-19T13:34:36.792Z,2.88
2023-04-19T13:39:35.605Z,2.85
2023-04-19T13:44:36.927Z,2.65
2023-04-19T13:49:35.608Z,2.20
2023-04-19T13:54:39.241Z,2.53
2023-04-19T13:59:36.746Z,2.38
2023-04-19T14:04:51.448Z,2.75
2023-04-19T14:09:53.140Z,2.58
2023-04-19T14:14:55.080Z,2.75
2023-04-19T14:19:54.307Z,3.17
2023-04-19T14:24:56.487Z,2.65
2023-04-19T14:29:57.853Z,2.45
2023-04-19T14:34:56.807Z,2.30
2023-04-19T14:39:57.953Z,2.72
2023-04-19T14:44:58.907Z,2.20
2023-04-19T14:49:59.794Z,2.80
2023-04-19T14:55:01.785Z,2.53
2023-04-19T15:00:15.731Z,5.50
2023-04-19T15:05:27.850Z,2.60
2023-04-19T15:10:46.965Z,2.33
2023-04-19T15:15:45.709Z,2.87
2023-04-19T15:20:51.456Z,3.13
2023-04-19T15:25:56.179Z,2.55
2023-04-19T15:31:13.848Z,2.72
2023-04-19T15:36:13.655Z,2.80
2023-04-19T15:41:19.851Z,2.83
2023-04-19T15:46:22.874Z,2.47
2023-04-19T15:51:24.313Z,2.85
2023-04-19T15:56:37.216Z,3.88
2023-04-19T16:01:39.786Z,2.10
2023-04-19T16:06:39.235Z,2.60
2023-04-19T16:11:42.326Z,2.72
2023-04-19T16:16:52.713Z,2.25
2023-04-19T16:21:57.112Z,2.22
2023-04-19T16:27:01.569Z,2.08
2023-04-19T16:32:02.038Z,2.53
2023-04-19T16:37:14.603Z,2.33
2023-04-19T16:42:26.728Z,2.58
2023-04-19T16:47:27.395Z,2.78
2023-04-19T16:52:52.205Z,2.70
2023-04-19T16:58:01.868Z,2.17
2023-04-19T17:03:19.826Z,2.60
2023-04-19T17:08:22.450Z,2.35
2023-04-19T17:13:24.158Z,2.33
2023-04-19T17:18:29.423Z,2.53
2023-04-19T17:23:30.161Z,3.60
2023-04-19T17:28:31.071Z,3.35
2023-04-19T17:33:34.839Z,3.58
2023-04-19T17:38:33.634Z,2.72
2023-04-19T17:43:35.369Z,2.70
2023-04-19T17:48:36.772Z,2.35
2023-04-19T17:53:39.054Z,2.55
2023-04-19T17:58:40.255Z,2.25
2023-04-19T18:03:56.155Z,2.92
2023-04-19T18:08:55.338Z,4.13
2023-04-19T18:13:58.815Z,3.85
2023-04-19T18:18:56.994Z,3.35
2023-04-19T18:24:02.922Z,4.15
2023-04-19T18:29:09.499Z,4.60
2023-04-19T18:34:19.949Z,6.18
2023-04-19T18:39:18.993Z,6.72
2023-04-19T18:44:44.254Z,6.93
2023-04-19T18:49:46.096Z,7.40
2023-04-19T18:55:01.697Z,8.85
2023-04-19T19:00:03.398Z,8.35
2023-04-19T19:05:07.487Z,9.73
2023-04-19T19:10:19.041Z,9.05
2023-04-19T19:15:24.416Z,9.40
2023-04-19T19:20:23.346Z,8.88
2023-04-19T19:25:24.999Z,9.50
2023-04-19T19:30:25.907Z,9.63
2023-04-19T19:35:37.008Z,9.27
2023-04-19T19:41:07.946Z,9.60
2023-04-19T19:46:14.075Z,10.65
2023-04-19T19:51:47.614Z,9.82
2023-04-19T19:56:35.820Z,9.10
2023-04-19T20:01:34.416Z,9.30
2023-04-19T20:07:18.273Z,11.43
2023-04-19T20:11:57.842Z,12.85
2023-04-19T20:16:56.903Z,11.45
2023-04-19T20:21:55.539Z,11.15
2023-04-19T20:27:03.090Z,10.23
2023-04-19T20:32:04.662Z,9.23
2023-04-19T20:37:03.991Z,8.90
2023-04-19T20:42:06.119Z,9.40
2023-04-19T20:47:07.478Z,9.20
2023-04-19T20:52:06.684Z,9.07
2023-04-19T20:57:04.975Z,8.90
2023-04-19T21:02:04.156Z,8.90
2023-04-19T21:07:07.615Z,9.35
2023-04-19T21:12:05.799Z,8.55
2023-04-19T21:17:04.162Z,9.40
2023-04-19T21:22:06.311Z,8.68
2023-04-19T21:27:08.539Z,9.32
2023-04-19T21:32:06.405Z,8.57
2023-04-19T21:37:05.086Z,8.98
2023-04-19T21:42:03.332Z,8.77
2023-04-19T21:47:06.252Z,9.10
2023-04-19T21:52:06.118Z,9.07
2023-04-19T21:57:07.574Z,10.57
2023-04-19T22:02:05.850Z,10.23
2023-04-19T22:07:04.097Z,10.50
2023-04-19T22:12:02.535Z,10.35
2023-04-19T22:17:03.599Z,10.85
2023-04-19T22:22:04.650Z,11.27
2023-04-19T22:27:08.549Z,10.10
2023-04-19T22:37:16.937Z,10.50
2023-04-19T22:42:19.125Z,11.32
2023-04-19T22:47:24.124Z,11.95
2023-04-19T22:52:26.827Z,12.75
2023-04-19T22:57:28.954Z,12.27
2023-04-19T23:02:28.727Z,11.35
2023-04-19T23:07:26.455Z,13.13
2023-04-19T23:12:24.798Z,12.40
2023-04-19T23:17:23.513Z,11.38
2023-04-19T23:22:26.769Z,11.75
2023-04-19T23:27:27.936Z,12.00
2023-04-19T23:32:28.195Z,12.15
2023-04-19T23:37:29.602Z,13.02
2023-04-19T23:42:33.553Z,12.32
2023-04-19T23:47:34.416Z,11.95
2023-04-19T23:52:36.257Z,14.20
2023-04-19T23:57:38.353Z,13.75
